Time;durP1;ratioP1;P1;durP2;ratioP2;P2;SDS_P1;SDS_P2;PMS_P1;PMS_P2;Temp;Humidity;BMP_temperature;BMP_pressure;BME280_temperature;BME280_humidity;BME280_pressure;Samples;Min_cycle;Max_cycle;Signal;HPM_P1;HPM_P2
2022/03/02 00:00:52;;;;;;;46.00;23.40;;;4.80;99.90;;;;;;4996322;28;20069;-79
2022/03/02 00:03:17;;;;;;;46.40;24.60;;;4.80;99.90;;;;;;4995150;28;20033;-79
2022/03/02 00:05:43;;;;;;;47.92;25.20;;;4.80;99.90;;;;;;4996237;28;20102;-79
2022/03/02 00:08:08;;;;;;;43.65;22.83;;;4.80;99.90;;;;;;4996195;28;20113;-80
2022/03/02 00:10:34;;;;;;;45.08;22.33;;;4.80;99.90;;;;;;4996248;28;20030;-79
2022/03/02 00:13:00;;;;;;;45.47;22.45;;;4.80;99.90;;;;;;4996464;28;20037;-80
2022/03/02 00:15:26;;;;;;;42.95;20.90;;;4.80;99.90;;;;;;4995809;28;20050;-79
2022/03/02 00:17:52;;;;;;;47.22;24.13;;;4.80;99.90;;;;;;4996014;28;20022;-79
2022/03/02 00:20:18;;;;;;;44.53;23.35;;;4.80;99.90;;;;;;4995929;28;20815;-79
2022/03/02 00:22:43;;;;;;;49.40;24.92;;;4.80;99.90;;;;;;4996003;28;20026;-79
2022/03/02 00:25:09;;;;;;;46.10;24.50;;;4.80;99.90;;;;;;4994392;28;20065;-79
2022/03/02 00:27:35;;;;;;;46.25;24.25;;;4.80;99.90;;;;;;4995192;28;20065;-79
2022/03/02 00:30:02;;;;;;;48.38;25.38;;;4.80;99.90;;;;;;4995749;28;20050;-79
2022/03/02 00:32:27;;;;;;;50.58;25.90;;;4.80;99.90;;;;;;4995771;28;20030;-79
2022/03/02 00:34:53;;;;;;;46.15;25.15;;;4.80;99.90;;;;;;4994329;28;20034;-79
2022/03/02 00:37:19;;;;;;;45.17;23.83;;;4.80;99.90;;;;;;4994544;28;20485;-79
2022/03/02 00:39:44;;;;;;;47.85;24.88;;;4.80;99.90;;;;;;4995469;28;20022;-79
2022/03/02 00:42:10;;;;;;;45.92;24.55;;;4.80;99.90;;;;;;4995660;28;20457;-79
2022/03/02 00:44:36;;;;;;;47.60;22.67;;;4.80;99.90;;;;;;4995545;28;20022;-79
2022/03/02 00:47:04;;;;;;;48.85;24.45;;;4.80;99.90;;;;;;4995735;28;20038;-79
2022/03/02 00:49:32;;;;;;;46.53;24.75;;;4.80;99.90;;;;;;4995442;28;20025;-79
2022/03/02 00:51:58;;;;;;;44.20;24.05;;;4.80;99.90;;;;;;4995707;28;20466;-79
2022/03/02 00:54:23;;;;;;;47.60;24.80;;;4.80;99.90;;;;;;4995288;28;20474;-80
2022/03/02 00:56:49;;;;;;;46.47;23.25;;;4.80;99.90;;;;;;4995347;28;20029;-79
2022/03/02 00:59:16;;;;;;;48.58;23.10;;;4.80;99.90;;;;;;4995326;28;20023;-79
2022/03/02 01:02:00;;;;;;;44.40;23.17;;;4.90;99.90;;;;;;4995150;28;20061;-79
2022/03/02 01:04:25;;;;;;;47.28;22.67;;;4.80;99.90;;;;;;4995175;28;20027;-79
2022/03/02 01:06:51;;;;;;;45.90;23.73;;;4.80;99.90;;;;;;4995158;28;20085;-79
2022/03/02 01:09:16;;;;;;;49.53;24.80;;;4.80;99.90;;;;;;4995091;28;20023;-79
2022/03/02 01:11:42;;;;;;;44.28;23.98;;;4.80;99.90;;;;;;4995012;28;20033;-79
2022/03/02 01:14:08;;;;;;;42.97;22.35;;;4.80;99.90;;;;;;4994617;28;20133;-79
2022/03/02 01:16:34;;;;;;;49.80;23.65;;;4.90;99.90;;;;;;4994992;28;20462;-80
2022/03/02 01:19:00;;;;;;;48.00;23.67;;;4.80;99.90;;;;;;4994784;28;20022;-80
2022/03/02 01:21:25;;;;;;;45.95;22.77;;;4.80;99.90;;;;;;4994796;28;20125;-80
2022/03/02 01:23:53;;;;;;;45.13;23.25;;;4.80;99.90;;;;;;4993632;28;20570;-80
2022/03/02 01:26:21;;;;;;;45.95;23.52;;;4.80;99.90;;;;;;4993595;28;20018;-80
2022/03/02 01:28:47;;;;;;;44.47;22.52;;;4.80;99.90;;;;;;4995061;28;20068;-79
2022/03/02 01:31:13;;;;;;;42.28;20.17;;;4.80;99.90;;;;;;4993571;28;20128;-79
2022/03/02 01:33:38;;;;;;;36.80;19.75;;;4.80;99.90;;;;;;4994722;28;20060;-79
2022/03/02 01:36:04;;;;;;;49.67;23.45;;;4.80;99.90;;;;;;4994599;28;20409;-79
2022/03/02 01:38:30;;;;;;;45.53;23.35;;;4.70;99.90;;;;;;4994211;28;20033;-79
2022/03/02 01:40:55;;;;;;;45.15;23.02;;;4.80;99.90;;;;;;4994389;28;20034;-79
2022/03/02 01:43:21;;;;;;;51.05;24.10;;;4.80;99.90;;;;;;4994685;28;20026;-79
2022/03/02 01:45:46;;;;;;;44.90;22.67;;;4.70;99.90;;;;;;4994430;28;20077;-79
2022/03/02 01:48:12;;;;;;;43.03;22.42;;;4.70;99.90;;;;;;4994419;28;20030;-79
2022/03/02 01:50:38;;;;;;;48.97;24.92;;;4.80;99.90;;;;;;4994285;28;20088;-79
2022/03/02 01:53:04;;;;;;;42.90;23.08;;;4.80;99.90;;;;;;4993132;28;20025;-79
2022/03/02 01:55:29;;;;;;;48.50;24.15;;;4.70;99.90;;;;;;4993013;28;20026;-79
2022/03/02 01:57:57;;;;;;;49.92;23.02;;;4.70;99.90;;;;;;4994609;28;20482;-79
2022/03/02 02:00:24;;;;;;;51.53;23.80;;;4.80;99.90;;;;;;4994266;28;20038;-79
2022/03/02 02:02:50;;;;;;;53.55;25.67;;;4.80;99.90;;;;;;4992946;28;20022;-79
2022/03/02 02:05:17;;;;;;;50.72;22.90;;;4.80;99.90;;;;;;4992833;28;20033;-79
2022/03/02 02:07:43;;;;;;;48.28;24.05;;;4.70;99.90;;;;;;4994053;28;20034;-79
2022/03/02 02:10:10;;;;;;;53.80;25.77;;;4.80;99.90;;;;;;4994492;28;20023;-79
2022/03/02 02:12:36;;;;;;;48.63;22.60;;;4.70;99.90;;;;;;5017868;23;20215;-86
2022/03/02 02:15:04;;;;;;;48.85;24.33;;;4.70;99.90;;;;;;5070867;28;20017;-85
2022/03/02 02:17:30;;;;;;;47.20;23.33;;;4.60;99.90;;;;;;5073363;28;20009;-85
2022/03/02 02:19:56;;;;;;;49.33;24.02;;;4.70;99.90;;;;;;5068480;28;20081;-86
2022/03/02 02:22:21;;;;;;;43.45;21.92;;;4.90;99.90;;;;;;5076193;28;20021;-86
2022/03/02 02:24:47;;;;;;;48.03;22.98;;;4.70;99.90;;;;;;5067803;28;20036;-85
2022/03/02 02:27:15;;;;;;;44.83;22.10;;;4.60;99.90;;;;;;5076026;28;20017;-85
2022/03/02 02:29:42;;;;;;;51.97;25.60;;;4.60;99.90;;;;;;5073745;28;20017;-85
2022/03/02 02:32:08;;;;;;;50.58;24.88;;;4.60;99.90;;;;;;5076760;28;20085;-85
2022/03/02 02:34:34;;;;;;;51.58;26.17;;;4.60;99.90;;;;;;5076176;28;20013;-85
2022/03/02 02:37:00;;;;;;;50.60;25.23;;;4.60;99.90;;;;;;5067858;28;20089;-85
2022/03/02 02:39:27;;;;;;;45.03;23.02;;;4.60;99.90;;;;;;5069442;28;20022;-86
2022/03/02 02:41:53;;;;;;;48.88;21.83;;;4.60;99.90;;;;;;5072838;28;20048;-85
2022/03/02 02:44:19;;;;;;;49.50;23.83;;;4.60;99.90;;;;;;5069587;28;20037;-86
2022/03/02 02:46:45;;;;;;;45.35;22.02;;;4.60;99.90;;;;;;5076033;28;20020;-85
2022/03/02 02:49:11;;;;;;;41.85;19.60;;;4.60;99.90;;;;;;5076729;28;20051;-86
2022/03/02 02:51:37;;;;;;;38.83;18.40;;;4.60;99.90;;;;;;5064407;28;20018;-86
2022/03/02 02:54:03;;;;;;;44.65;20.60;;;4.60;99.90;;;;;;5078525;28;20028;-85
2022/03/02 02:56:29;;;;;;;48.45;21.45;;;4.70;99.90;;;;;;5079719;28;20017;-86
2022/03/02 02:58:55;;;;;;;51.65;23.85;;;4.60;99.90;;;;;;5079337;28;20048;-86
2022/03/02 03:01:21;;;;;;;51.00;24.25;;;4.60;99.90;;;;;;5071712;28;20025;-85
2022/03/02 03:03:47;;;;;;;48.65;23.55;;;4.60;99.90;;;;;;5071255;28;20071;-86
2022/03/02 03:06:13;;;;;;;42.80;21.80;;;4.60;99.40;;;;;;5071110;28;20031;-85
2022/03/02 03:08:39;;;;;;;45.38;22.60;;;4.60;96.70;;;;;;5071031;28;20033;-86
2022/03/02 03:11:05;;;;;;;47.05;21.00;;;4.60;92.60;;;;;;5079228;28;20051;-86
2022/03/02 03:13:31;;;;;;;45.30;22.00;;;4.60;86.60;;;;;;5085620;28;20037;-86
2022/03/02 03:15:56;;;;;;;45.72;22.48;;;4.60;86.40;;;;;;5088062;28;20024;-86
2022/03/02 03:18:22;;;;;;;47.92;22.17;;;4.60;69.00;;;;;;5087678;28;20017;-86
2022/03/02 03:20:48;;;;;;;42.67;21.52;;;4.60;69.60;;;;;;5079353;28;20055;-85
2022/03/02 03:23:14;;;;;;;42.42;21.90;;;4.60;65.90;;;;;;5079394;28;20021;-86
2022/03/02 03:25:39;;;;;;;48.33;23.25;;;4.60;61.80;;;;;;5084873;28;20084;-86
2022/03/02 03:28:05;;;;;;;41.75;20.23;;;4.50;63.80;;;;;;5090872;28;20032;-86
2022/03/02 03:30:31;;;;;;;44.63;22.55;;;4.50;38.00;;;;;;5083688;28;20020;-86
2022/03/02 03:32:57;;;;;;;49.72;22.73;;;4.50;40.10;;;;;;5092333;28;20009;-86
2022/03/02 03:35:25;;;;;;;48.65;24.02;;;4.50;42.90;;;;;;5081691;28;20049;-86
2022/03/02 03:37:51;;;;;;;41.55;20.50;;;4.50;47.50;;;;;;5084475;28;20296;-86
2022/03/02 03:40:17;;;;;;;45.25;22.35;;;4.40;65.60;;;;;;5087346;28;20083;-86
2022/03/02 03:42:44;;;;;;;45.97;22.00;;;4.40;75.60;;;;;;5078817;28;20013;-86
2022/03/02 03:45:10;;;;;;;47.17;22.38;;;4.30;91.90;;;;;;5079240;28;20025;-86
2022/03/02 03:47:36;;;;;;;40.30;18.65;;;4.30;93.10;;;;;;5087113;28;20017;-86
2022/03/02 03:50:03;;;;;;;44.08;21.13;;;4.20;96.70;;;;;;5087173;28;20032;-86
2022/03/02 03:52:29;;;;;;;49.55;23.48;;;4.10;99.90;;;;;;5081581;28;20017;-86
2022/03/02 03:54:54;;;;;;;42.42;22.65;;;4.10;99.90;;;;;;5084009;28;20033;-86
2022/03/02 03:57:20;;;;;;;45.97;20.83;;;3.90;99.90;;;;;;5060162;28;20105;-87
2022/03/02 03:59:47;;;;;;;50.67;21.90;;;3.90;99.90;;;;;;5091031;28;20025;-85
2022/03/02 04:02:12;;;;;;;43.40;20.50;;;3.80;99.90;;;;;;5078750;28;20017;-85
2022/03/02 04:04:38;;;;;;;50.33;22.73;;;3.70;99.90;;;;;;5078848;28;20056;-86
2022/03/02 04:07:06;;;;;;;49.85;22.77;;;3.70;99.90;;;;;;5094343;28;20029;-85
2022/03/02 04:09:31;;;;;;;51.47;22.80;;;3.60;99.90;;;;;;5099244;28;20012;-85
2022/03/02 04:11:57;;;;;;;50.40;23.08;;;3.40;99.90;;;;;;5099047;28;20080;-84
2022/03/02 04:14:23;;;;;;;51.13;22.63;;;3.30;99.90;;;;;;5098769;28;20029;-85
2022/03/02 04:16:48;;;;;;;52.33;24.33;;;3.20;99.90;;;;;;5098974;28;20037;-85
2022/03/02 04:19:14;;;;;;;48.20;22.33;;;3.00;99.90;;;;;;5090399;28;20189;-85
2022/03/02 04:21:39;;;;;;;53.40;25.25;;;2.90;99.90;;;;;;5098970;28;20058;-85
2022/03/02 04:24:05;;;;;;;47.47;20.90;;;2.80;99.90;;;;;;5098676;28;20025;-85
2022/03/02 04:26:31;;;;;;;46.97;20.73;;;2.70;99.90;;;;;;5098822;28;20009;-85
2022/03/02 04:28:57;;;;;;;52.75;23.38;;;2.60;99.90;;;;;;5098775;28;20016;-85
2022/03/02 04:31:22;;;;;;;58.15;24.40;;;2.60;99.90;;;;;;5081703;28;20043;-84
2022/03/02 04:33:48;;;;;;;56.45;24.52;;;2.40;99.90;;;;;;5078464;28;20013;-85
2022/03/02 04:36:13;;;;;;;58.80;26.08;;;2.30;99.90;;;;;;5085574;28;20012;-85
2022/03/02 04:38:39;;;;;;;50.72;21.88;;;2.30;99.90;;;;;;5098751;28;20089;-85
2022/03/02 04:41:05;;;;;;;52.38;23.17;;;2.20;99.90;;;;;;5098616;28;20040;-85
2022/03/02 04:43:30;;;;;;;60.60;25.05;;;2.10;99.90;;;;;;5098865;28;20016;-85
2022/03/02 04:45:57;;;;;;;61.28;24.20;;;2.10;99.90;;;;;;5098688;28;20043;-85
2022/03/02 04:48:23;;;;;;;57.85;24.42;;;2.00;99.90;;;;;;5098645;28;20039;-85
2022/03/02 04:50:49;;;;;;;54.20;24.88;;;2.00;99.90;;;;;;5098588;28;20068;-86
2022/03/02 04:53:16;;;;;;;55.58;23.00;;;1.80;99.90;;;;;;5098465;28;20051;-85
2022/03/02 04:55:42;;;;;;;55.92;25.95;;;1.80;99.90;;;;;;5098387;28;20060;-85
2022/03/02 04:58:08;;;;;;;58.35;24.40;;;1.80;99.90;;;;;;5092445;28;20088;-85
2022/03/02 05:00:35;;;;;;;55.60;24.17;;;1.80;99.90;;;;;;5061073;28;20025;-85
2022/03/02 05:03:03;;;;;;;56.33;23.48;;;1.70;99.90;;;;;;5078184;28;20017;-85
2022/03/02 05:05:31;;;;;;;51.97;23.23;;;1.70;99.90;;;;;;5078343;28;20029;-85
2022/03/02 05:07:58;;;;;;;57.47;23.17;;;1.70;99.90;;;;;;5078132;28;20040;-85
2022/03/02 05:10:24;;;;;;;63.10;25.42;;;1.80;99.90;;;;;;5078055;28;20062;-85
2022/03/02 05:12:50;;;;;;;63.53;26.98;;;1.60;99.90;;;;;;5077338;28;20095;-85
2022/03/02 05:15:16;;;;;;;54.63;25.20;;;1.70;99.90;;;;;;5078197;28;20028;-85
2022/03/02 05:17:43;;;;;;;50.92;22.60;;;1.70;99.90;;;;;;5078098;28;20044;-85
2022/03/02 05:20:13;;;;;;;54.90;23.88;;;1.60;99.90;;;;;;5077903;28;20055;-85
2022/03/02 05:22:38;;;;;;;60.20;24.38;;;1.50;99.90;;;;;;5078102;28;20047;-85
2022/03/02 05:25:06;;;;;;;58.13;25.15;;;1.50;99.90;;;;;;5077900;28;20013;-85
2022/03/02 05:27:32;;;;;;;55.33;23.73;;;1.50;1.00;;;;;;5077679;28;20088;-86
2022/03/02 05:29:58;;;;;;;55.58;22.20;;;1.60;1.00;;;;;;5077785;28;20009;-86
2022/03/02 05:32:23;;;;;;;51.88;24.13;;;1.50;1.00;;;;;;5077931;28;20024;-85
2022/03/02 05:34:49;;;;;;;56.47;24.40;;;1.40;1.00;;;;;;5077775;28;20017;-85
2022/03/02 05:37:15;;;;;;;57.92;24.88;;;1.40;1.00;;;;;;5077765;28;20025;-85
2022/03/02 05:39:40;;;;;;;52.47;23.52;;;1.50;1.00;;;;;;5077759;28;20037;-85
2022/03/02 05:42:08;;;;;;;53.88;22.92;;;1.40;1.00;;;;;;5077256;28;20041;-86
2022/03/02 05:44:33;;;;;;;51.78;24.50;;;1.50;1.00;;;;;;5077461;28;20024;-85
2022/03/02 05:46:59;;;;;;;63.90;26.10;;;1.50;1.00;;;;;;5063009;28;20013;-85
2022/03/02 05:49:25;;;;;;;55.75;25.40;;;1.40;1.00;;;;;;5088262;28;20028;-85
2022/03/02 05:51:50;;;;;;;46.08;22.00;;;1.50;1.00;;;;;;5079025;28;20017;-85
2022/03/02 05:54:18;;;;;;;54.10;24.25;;;1.40;1.20;;;;;;5077360;28;20017;-85
2022/03/02 05:56:44;;;;;;;59.58;25.48;;;1.30;12.00;;;;;;5056401;28;20017;-85
2022/03/02 05:59:11;;;;;;;55.85;25.88;;;1.30;57.00;;;;;;5066345;28;20041;-85
2022/03/02 06:01:38;;;;;;;49.13;23.48;;;1.30;97.60;;;;;;5074699;28;20043;-85
2022/03/02 06:04:05;;;;;;;52.00;22.60;;;1.40;99.90;;;;;;5075271;28;20009;-85
2022/03/02 06:06:33;;;;;;;57.97;25.00;;;1.30;99.90;;;;;;5076140;28;20051;-84
2022/03/02 06:09:00;;;;;;;58.80;24.33;;;1.30;99.90;;;;;;5076533;28;20096;-84
2022/03/02 06:11:26;;;;;;;54.38;24.08;;;1.50;99.90;;;;;;5071310;28;20022;-84
2022/03/02 06:13:53;;;;;;;47.40;20.27;;;1.50;99.90;;;;;;5061161;28;20120;-84
2022/03/02 06:16:18;;;;;;;46.63;21.42;;;1.40;95.10;;;;;;5068778;28;20013;-85
2022/03/02 06:18:44;;;;;;;58.22;24.65;;;1.40;99.90;;;;;;5057299;28;20017;-84
2022/03/02 06:21:16;;;;;;;48.58;21.25;;;1.40;99.90;;;;;;5056277;28;20097;-85
2022/03/02 06:23:42;;;;;;;42.95;19.92;;;1.40;97.40;;;;;;5058459;28;20131;-85
2022/03/02 06:26:08;;;;;;;41.10;18.85;;;1.40;99.90;;;;;;5068615;28;20033;-85
2022/03/02 06:28:34;;;;;;;61.88;26.85;;;1.50;98.40;;;;;;5071026;28;20018;-84
2022/03/02 06:30:59;;;;;;;51.22;24.65;;;1.50;95.70;;;;;;5069289;28;20028;-85
2022/03/02 06:33:25;;;;;;;56.65;25.10;;;1.40;91.20;;;;;;5077393;28;20029;-85
2022/03/02 06:35:51;;;;;;;50.17;24.55;;;1.50;62.80;;;;;;5075349;28;20043;-85
2022/03/02 06:38:17;;;;;;;52.90;22.80;;;1.30;27.90;;;;;;5072447;28;20025;-86
2022/03/02 06:41:05;;;;;;;30.40;15.32;;;1.30;65.20;;;;;;5060823;28;20048;-86
2022/03/02 06:43:54;;;;;;;52.55;23.98;;;1.20;60.00;;;;;;5063786;28;20033;-85
2022/03/02 06:46:31;;;;;;;56.20;25.05;;;1.20;44.30;;;;;;5062991;28;20053;-85
2022/03/02 06:49:06;;;;;;;47.38;20.15;;;1.20;67.80;;;;;;5060939;28;21035;-85
2022/03/02 06:51:32;;;;;;;52.83;23.27;;;1.30;79.30;;;;;;5060127;28;20515;-85
2022/03/02 06:54:02;;;;;;;42.03;18.58;;;1.30;44.90;;;;;;5061436;28;20089;-85
2022/03/02 06:56:39;;;;;;;39.22;18.10;;;1.40;22.90;;;;;;5064622;28;20023;-85
2022/03/02 06:59:09;;;;;;;53.97;23.75;;;1.40;1.00;;;;;;5061441;28;20017;-84
2022/03/02 07:01:36;;;;;;;44.30;20.02;;;1.40;1.00;;;;;;5051374;28;20036;-85
2022/03/02 07:04:01;;;;;;;41.50;17.27;;;1.50;1.00;;;;;;5063255;28;20025;-85
2022/03/02 07:06:28;;;;;;;54.90;21.90;;;1.50;1.00;;;;;;5062209;28;20029;-85
2022/03/02 07:08:54;;;;;;;51.42;23.75;;;1.50;1.00;;;;;;5065896;28;20029;-85
2022/03/02 07:11:21;;;;;;;52.65;23.48;;;1.50;1.00;;;;;;5067760;28;20081;-85
2022/03/02 07:13:48;;;;;;;55.42;23.88;;;1.60;1.00;;;;;;5068286;28;20081;-85
2022/03/02 07:16:14;;;;;;;58.42;24.13;;;1.70;1.00;;;;;;5060927;28;20021;-85
2022/03/02 07:18:41;;;;;;;55.05;25.95;;;1.70;99.90;;;;;;5067756;28;20035;-85
2022/03/02 07:21:11;;;;;;;58.08;26.38;;;1.80;99.90;;;;;;5076486;28;21115;-85
2022/03/02 07:24:06;;;;;;;58.72;26.80;;;3.80;99.90;;;;;;5067330;28;20018;-85
2022/03/02 07:26:34;;;;;;;50.70;22.35;;;5.10;1.00;;;;;;5069869;28;20036;-85
2022/03/02 07:29:00;;;;;;;50.35;23.98;;;6.00;99.90;;;;;;5067766;28;20013;-85
2022/03/02 07:31:26;;;;;;;54.70;24.67;;;6.70;99.90;;;;;;5068119;28;20088;-85
2022/03/02 07:33:53;;;;;;;52.28;24.73;;;6.80;99.90;;;;;;5069540;28;20048;-85
2022/03/02 07:36:20;;;;;;;47.30;23.58;;;8.00;99.90;;;;;;5069121;28;20024;-85
2022/03/02 07:38:47;;;;;;;50.40;23.23;;;9.20;99.90;;;;;;5069238;28;20040;-86
2022/03/02 07:41:13;;;;;;;51.67;22.63;;;9.10;99.90;;;;;;5066024;28;20040;-85
2022/03/02 07:43:40;;;;;;;44.33;22.15;;;7.90;99.90;;;;;;5081663;28;20048;-85
2022/03/02 07:46:09;;;;;;;47.60;23.75;;;8.20;99.90;;;;;;5065593;28;20105;-86
2022/03/02 07:48:34;;;;;;;48.85;24.15;;;9.30;99.90;;;;;;5068008;28;20014;-85
2022/03/02 07:51:02;;;;;;;44.20;20.50;;;9.90;99.90;;;;;;5067251;28;20157;-85
2022/03/02 07:53:33;;;;;;;49.13;22.45;;;11.00;99.90;;;;;;5078909;28;20052;-85
2022/03/02 07:55:58;;;;;;;;;;;11.90;99.90;;;;;;5087214;28;20020;-86
2022/03/02 07:58:24;;;;;;;40.20;20.80;;;10.50;99.90;;;;;;5066680;28;19911;-86
2022/03/02 08:00:53;;;;;;;44.85;21.98;;;9.10;99.90;;;;;;5070344;28;20095;-86
2022/03/02 08:03:21;;;;;;;41.47;22.17;;;9.20;99.90;;;;;;5094308;28;20025;-86
2022/03/02 08:05:46;;;;;;;41.08;22.02;;;10.20;99.90;;;;;;5092404;28;20028;-85
2022/03/02 08:08:13;;;;;;;42.00;21.38;;;11.80;99.90;;;;;;5088595;28;20021;-86
2022/03/02 08:10:39;;;;;;;43.03;20.23;;;11.00;99.90;;;;;;5081851;28;20026;-85
2022/03/02 08:13:05;;;;;;;39.95;22.02;;;12.30;99.90;;;;;;5047731;28;20048;-85
2022/03/02 08:15:31;;;;;;;39.88;21.23;;;12.00;99.90;;;;;;5064416;28;20037;-86
2022/03/02 08:17:57;;;;;;;43.30;21.13;;;11.60;99.90;;;;;;5058930;28;20017;-85
2022/03/02 08:20:22;;;;;;;35.67;20.55;;;14.20;99.90;;;;;;5070685;28;20076;-86
2022/03/02 08:22:51;;;;;;;39.47;19.65;;;12.50;99.90;;;;;;5075649;28;20044;-85
2022/03/02 08:25:22;;;;;;;35.90;19.33;;;13.10;99.90;;;;;;5066042;28;20013;-86
2022/03/02 08:27:52;;;;;;;40.25;21.08;;;14.20;99.90;;;;;;5068223;28;20012;-86
2022/03/02 08:30:18;;;;;;;38.55;21.48;;;13.80;99.90;;;;;;5067640;28;20060;-85
2022/03/02 08:32:45;;;;;;;33.22;17.85;;;14.20;99.90;;;;;;5075110;28;20017;-84
2022/03/02 08:35:12;;;;;;;40.67;22.77;;;15.20;99.90;;;;;;5065418;28;20017;-86
2022/03/02 08:37:38;;;;;;;36.13;20.27;;;14.90;99.90;;;;;;5082952;28;20025;-86
2022/03/02 08:40:05;;;;;;;39.67;21.75;;;16.00;99.90;;;;;;5076970;28;20048;-86
2022/03/02 08:42:32;;;;;;;41.58;20.35;;;16.70;99.90;;;;;;5070843;28;20028;-85
2022/03/02 08:44:58;;;;;;;32.33;17.08;;;15.10;99.90;;;;;;5064651;28;20048;-86
2022/03/02 08:47:24;;;;;;;41.08;22.48;;;16.80;99.90;;;;;;5049417;28;20018;-87
2022/03/02 08:49:50;;;;;;;36.38;20.00;;;16.10;99.90;;;;;;5065604;28;20024;-92
2022/03/02 08:52:20;;;;;;;37.65;22.00;;;15.70;99.90;;;;;;5077128;28;20028;-89
2022/03/02 08:54:47;;;;;;;34.63;19.27;;;16.40;99.90;;;;;;5073206;28;20036;-90
2022/03/02 08:57:15;;;;;;;34.47;20.00;;;16.20;99.90;;;;;;5081600;28;20037;-89
2022/03/02 08:59:41;;;;;;;37.80;19.80;;;16.80;99.90;;;;;;5084144;28;20033;-89
2022/03/02 09:02:08;;;;;;;39.78;20.83;;;17.20;99.90;;;;;;5078267;28;20060;-88
2022/03/02 09:04:36;;;;;;;31.55;16.45;;;16.70;99.90;;;;;;5074297;28;20032;-87
2022/03/02 09:07:04;;;;;;;36.20;20.02;;;16.20;99.90;;;;;;5073664;28;20448;-91
2022/03/02 09:09:30;;;;;;;35.22;19.02;;;17.00;99.90;;;;;;5070437;28;20108;-86
2022/03/02 09:11:56;;;;;;;38.65;20.83;;;16.50;99.90;;;;;;5066171;28;20498;-86
2022/03/02 09:14:23;;;;;;;37.55;20.08;;;15.70;99.90;;;;;;5050448;28;20041;-86
2022/03/02 09:16:49;;;;;;;37.42;21.02;;;17.00;99.90;;;;;;5050671;28;20468;-86
2022/03/02 09:19:15;;;;;;;34.72;20.02;;;16.70;99.90;;;;;;5054496;28;20029;-86
2022/03/02 09:21:42;;;;;;;37.08;21.40;;;15.50;99.90;;;;;;5056058;28;20025;-86
2022/03/02 09:24:09;;;;;;;40.38;22.33;;;16.00;99.90;;;;;;5051298;28;20040;-86
2022/03/02 09:26:36;;;;;;;37.55;21.33;;;15.80;99.90;;;;;;5057248;28;20366;-86
2022/03/02 09:29:05;;;;;;;37.35;21.02;;;11.20;99.90;;;;;;5057953;28;20032;-86
2022/03/02 09:31:33;;;;;;;36.10;19.63;;;9.70;99.90;;;;;;5061656;28;20028;-86
2022/03/02 09:33:59;;;;;;;36.03;20.42;;;9.50;99.90;;;;;;5061837;28;20467;-86
2022/03/02 09:36:26;;;;;;;35.88;20.40;;;11.10;99.90;;;;;;5062204;28;20028;-86
2022/03/02 09:38:53;;;;;;;37.47;20.95;;;14.10;99.90;;;;;;5062645;28;20021;-86
2022/03/02 09:41:49;;;;;;;41.25;22.92;;;15.50;99.90;;;;;;5070533;28;20036;-86
2022/03/02 09:44:19;;;;;;;37.08;18.42;;;15.50;99.90;;;;;;5058272;28;20037;-86
2022/03/02 09:46:48;;;;;;;;;;;16.10;99.90;;;;;;5062335;28;20081;-87
2022/03/02 09:49:18;;;;;;;36.05;19.58;;;16.20;99.90;;;;;;5070821;28;19916;-86
2022/03/02 09:51:51;;;;;;;40.40;20.08;;;17.10;99.90;;;;;;5059415;28;20032;-86
2022/03/02 09:54:21;;;;;;;35.03;20.85;;;16.70;99.90;;;;;;5065654;28;20041;-86
2022/03/02 09:56:48;;;;;;;;;;;16.10;99.90;;;;;;5060646;28;20058;-86
2022/03/02 09:59:17;;;;;;;30.58;15.23;;;16.80;99.90;;;;;;5055120;28;20006;-86
2022/03/02 10:01:44;;;;;;;40.13;22.40;;;17.40;99.90;;;;;;5044359;28;20039;-85
2022/03/02 10:04:22;;;;;;;34.88;18.70;;;18.00;99.90;;;;;;5069385;28;20506;-85
2022/03/02 10:09:45;;;;;;;38.15;19.80;;;17.80;99.90;;;;;;5057517;28;20036;-86
2022/03/02 10:12:16;;;;;;;38.30;21.25;;;16.30;99.90;;;;;;5046545;28;20032;-82
2022/03/02 10:14:42;;;;;;;;;;;16.60;99.90;;;;;;5052009;28;20412;-85
2022/03/02 10:17:11;;;;;;;28.58;15.10;;;16.50;99.90;;;;;;5071006;28;20365;-84
2022/03/02 10:19:45;;;;;;;40.15;21.83;;;15.20;99.90;;;;;;5072297;28;20032;-86
2022/03/02 10:22:48;;;;;;;42.03;22.40;;;15.80;99.90;;;;;;5073723;28;20103;-86
2022/03/02 10:25:16;;;;;;;39.33;21.90;;;17.70;99.90;;;;;;5069621;28;20235;-86
2022/03/02 10:28:04;;;;;;;38.95;22.17;;;17.10;99.90;;;;;;5038876;28;20033;-86
2022/03/02 10:30:39;;;;;;;37.90;20.83;;;16.10;99.90;;;;;;5050950;28;20057;-86
2022/03/02 10:33:21;;;;;;;36.50;19.38;;;16.20;99.90;;;;;;5058199;28;20021;-86
2022/03/02 10:36:09;;;;;;;37.50;21.10;;;14.70;99.90;;;;;;5031532;28;20034;-87
2022/03/02 10:38:59;;;;;;;41.47;21.52;;;13.80;99.90;;;;;;5057682;28;20067;-87
2022/03/02 10:41:26;;;;;;;33.75;17.30;;;12.70;99.90;;;;;;5049576;28;20159;-86
2022/03/02 10:44:01;;;;;;;38.90;21.65;;;11.80;99.90;;;;;;5050745;28;20382;-83
2022/03/02 10:46:27;;;;;;;40.67;21.88;;;11.40;99.90;;;;;;5058685;28;20032;-85
2022/03/02 10:49:25;;;;;;;38.90;22.23;;;10.80;99.90;;;;;;5068953;28;20029;-85
2022/03/02 10:51:52;;;;;;;41.25;21.33;;;10.60;99.90;;;;;;5014952;28;20404;-85
2022/03/02 10:54:21;;;;;;;40.65;20.17;;;10.60;99.90;;;;;;5050082;28;20049;-85
2022/03/02 10:56:51;;;;;;;41.28;20.27;;;10.30;99.90;;;;;;5035919;28;20372;-87
2022/03/02 10:59:21;;;;;;;37.15;20.50;;;10.00;99.90;;;;;;5060555;28;20390;-83
2022/03/02 11:01:49;;;;;;;38.25;19.95;;;9.50;99.90;;;;;;5040558;28;20089;-84
2022/03/02 11:04:21;;;;;;;41.58;20.98;;;9.40;99.90;;;;;;5043789;28;20025;-85
2022/03/02 11:06:47;;;;;;;40.70;21.50;;;9.60;99.90;;;;;;5059716;28;20051;-84
2022/03/02 11:09:16;;;;;;;39.85;22.80;;;9.40;99.90;;;;;;5048517;28;20021;-84
2022/03/02 11:11:42;;;;;;;39.28;21.55;;;9.90;99.90;;;;;;5055929;28;20032;-85
2022/03/02 11:14:09;;;;;;;38.38;18.40;;;10.00;99.90;;;;;;5038894;28;20060;-85
2022/03/02 11:16:35;;;;;;;39.58;22.10;;;9.60;99.90;;;;;;5039580;28;20047;-84
2022/03/02 11:19:11;;;;;;;37.58;19.58;;;9.50;99.90;;;;;;5048948;28;20017;-85
2022/03/02 11:21:40;;;;;;;37.20;19.67;;;9.30;99.90;;;;;;5041506;28;20116;-84
2022/03/02 11:24:06;;;;;;;36.00;18.42;;;9.60;99.90;;;;;;5040176;28;20027;-85
2022/03/02 11:26:35;;;;;;;37.22;19.90;;;9.40;99.90;;;;;;5041016;28;20018;-85
2022/03/02 11:29:06;;;;;;;33.25;17.23;;;9.60;99.90;;;;;;5040136;28;20106;-85
2022/03/02 11:31:39;;;;;;;40.47;21.40;;;9.50;99.90;;;;;;5039512;28;20017;-85
2022/03/02 11:34:15;;;;;;;37.40;20.67;;;9.70;99.90;;;;;;5055436;28;20091;-84
2022/03/02 11:36:44;;;;;;;38.33;20.45;;;9.90;99.90;;;;;;5057457;28;20029;-84
2022/03/02 11:39:11;;;;;;;40.20;22.40;;;9.60;99.90;;;;;;5048961;28;20025;-84
2022/03/02 11:41:39;;;;;;;38.40;21.05;;;9.70;99.90;;;;;;5051496;28;20688;-85
2022/03/02 11:44:42;;;;;;;34.17;18.00;;;9.80;99.90;;;;;;5045700;28;20033;-84
2022/03/02 11:47:13;;;;;;;36.10;19.80;;;9.70;99.90;;;;;;5033171;28;20515;-85
2022/03/02 11:49:53;;;;;;;33.25;17.75;;;9.70;99.90;;;;;;5042399;28;20025;-84
2022/03/02 11:52:20;;;;;;;39.75;21.98;;;9.90;99.90;;;;;;5048159;28;20114;-84
2022/03/02 11:54:59;;;;;;;36.65;18.38;;;10.00;99.90;;;;;;5059711;28;20020;-85
2022/03/02 11:57:28;;;;;;;34.80;17.42;;;9.90;99.90;;;;;;5059191;28;20066;-85
2022/03/02 12:00:07;;;;;;;35.50;18.50;;;10.00;99.90;;;;;;5067229;28;20029;-86
2022/03/02 12:02:44;;;;;;;35.30;21.33;;;9.90;99.90;;;;;;5061617;28;20029;-83
2022/03/02 12:05:09;;;;;;;31.77;17.35;;;9.90;99.90;;;;;;5062408;28;20056;-82
2022/03/02 12:07:40;;;;;;;38.40;21.05;;;10.00;99.90;;;;;;5065629;28;20078;-82
2022/03/02 12:10:24;;;;;;;;;;;10.30;99.90;;;;;;5054256;28;20043;-82
2022/03/02 12:12:51;;;;;;;36.42;18.02;;;10.20;99.90;;;;;;5074646;28;19917;-86
2022/03/02 12:15:19;;;;;;;37.65;18.95;;;10.20;99.90;;;;;;5071665;28;20044;-86
2022/03/02 12:17:45;;;;;;;37.67;19.17;;;10.30;99.90;;;;;;5062847;28;20055;-86
2022/03/02 12:20:20;;;;;;;36.42;19.40;;;10.30;99.90;;;;;;5065229;28;20025;-85
2022/03/02 12:22:50;;;;;;;35.78;18.42;;;10.30;99.90;;;;;;5078244;28;20033;-84
2022/03/02 12:25:21;;;;;;;36.58;18.92;;;10.20;99.90;;;;;;5087887;28;20013;-84
2022/03/02 12:27:58;;;;;;;33.88;18.60;;;10.20;99.90;;;;;;5090749;28;20037;-84
2022/03/02 12:30:24;;;;;;;37.80;18.85;;;10.20;99.90;;;;;;5082835;28;20027;-83
2022/03/02 12:32:54;;;;;;;33.95;18.95;;;10.30;99.90;;;;;;5059496;28;20025;-83
2022/03/02 12:35:23;;;;;;;34.60;18.95;;;10.20;99.90;;;;;;5071791;28;20017;-83
2022/03/02 12:38:09;;;;;;;36.53;19.83;;;10.40;99.90;;;;;;5084851;28;20017;-84
2022/03/02 12:40:42;;;;;;;32.88;19.00;;;10.50;99.90;;;;;;5088974;28;20040;-83
2022/03/02 12:43:16;;;;;;;32.90;17.67;;;10.10;99.90;;;;;;5071118;28;20017;-83